Torrent, Spain
Current Conditions -  °F | °C
As of 4:30 AM on Monday 22 Dec 2014 (Local Time) from LEVC Reporting Station
Clear Clear  
Wind Chill: 43°   Ceiling: Unl
Heat Index: 43°   Visibility: 6mi
Dew Point: 41°   Wind: 3mph
Humidity: 93%   Direction: 280°W
Pressure: 30.48"   Gusts: NA
Location:  39.44°N, 0.47°W
Report Text: LEVC 220330Z 28003KT CAVOK 06/05 Q1032 NOSIG
Loading
Personal Weather Stations






























Interactive Weather Map New forecast layout! Learn more

10-Day Weather Forecast

Advertisements
Track Severe Weather on mobile